Overview Statistics Trail Chart Weather Telemetry Raw packets
 

This is the latest recevied weather packets stored in our database for station/object K6POO-1. If no packets are shown the sender has not sent any weather packets the latest 10 day(s).

<< 88 89 90 91 92 93 94 >>
Time Temp. Humidity Pressure Rain* Wind** Luminosity Snow
1788040480 20.56° C 59% 1015 hPa 0 mm - 751 W/m² -
1788040177 21.11° C 56% 1014.9 hPa 0 mm - 765 W/m² -
1788039876 21.67° C 56% 1014.8 hPa 0 mm - 778 W/m² -
1788039571 21.11° C 58% 1015 hPa 0 mm - 793 W/m² -
1788039266 20.56° C 61% 1015.1 hPa 0 mm - 803 W/m² -
1788038962 21.11° C 58% 1015.1 hPa 0 mm - 814 W/m² -
1788038657 21.11° C 58% 1015.2 hPa 0 mm - 821 W/m² -
1788038356 20° C 62% 1015.3 hPa 0 mm - 833 W/m² -
1788038052 20.56° C 61% 1015.1 hPa 0 mm - 843 W/m² -
1788037751 20.56° C 60% 1015.3 hPa 0 mm - 856 W/m² -
1788037446 20.56° C 59% 1015.2 hPa 0 mm - 861 W/m² -
1788037145 20° C 62% 1015.1 hPa 0 mm - 869 W/m² -
1788036840 20.56° C 60% 1015.3 hPa 0 mm - 872 W/m² -
1788036537 21.11° C 59% 1015.4 hPa 0 mm - 878 W/m² -
1788036237 20° C 62% 1015.3 hPa 0 mm - 888 W/m² -
1788035932 20° C 63% 1015.4 hPa 0 mm - 891 W/m² -
1788035632 20.56° C 61% 1015.3 hPa 0 mm - 894 W/m² -
1788035327 21.11° C 59% 1015.5 hPa 0 mm - 904 W/m² -
1788035022 21.67° C 59% 1015.4 hPa 0 mm - 909 W/m² -
1788034719 21.67° C 58% 1015.4 hPa 0 mm - 913 W/m² -
1788034415 21.11° C 64% 1015.5 hPa 0 mm - 916 W/m² -
1788034110 21.11° C 63% 1015.7 hPa 0 mm - 917 W/m² -
1788033820 21.67° C 60% 1015.5 hPa 0 mm - 920 W/m² -
1788033503 21.67° C 60% 1015.7 hPa 0 mm - 923 W/m² -
1788033199 20.56° C 62% 1015.6 hPa 0 mm - 926 W/m² -

* Rain latest hour (hover to see other rain measurements)
** Current wind speed in m/s (hover to see current wind gust speed)